Time;durP1;ratioP1;P1;durP2;ratioP2;P2;SDS_P1;SDS_P2;PMS_P1;PMS_P2;Temp;Humidity;BMP_temperature;BMP_pressure;BME280_temperature;BME280_humidity;BME280_pressure;Samples;Min_cycle;Max_cycle;Signal;HPM_P1;HPM_P2
2022/07/03 00:00:29;;;;;;;3.30;2.77;;;;;;;;;;5054441;28;20640;-65
2022/07/03 00:02:55;;;;;;;3.03;2.70;;;;;;;;;;5054217;28;20181;-66
2022/07/03 00:05:21;;;;;;;3.03;2.30;;;;;;;;;;5054527;28;20537;-65
2022/07/03 00:07:47;;;;;;;2.67;2.40;;;;;;;;;;5054060;28;20253;-65
2022/07/03 00:10:13;;;;;;;3.47;2.73;;;;;;;;;;5054029;28;20214;-66
2022/07/03 00:12:39;;;;;;;4.70;2.70;;;;;;;;;;5036297;28;20174;-67
2022/07/03 00:15:05;;;;;;;3.87;3.37;;;;;;;;;;5054168;28;20620;-65
2022/07/03 00:17:31;;;;;;;4.50;3.10;;;;;;;;;;5054045;28;20619;-65
2022/07/03 00:19:57;;;;;;;4.13;3.60;;;;;;;;;;5036412;28;20175;-67
2022/07/03 00:22:26;;;;;;;4.03;3.50;;;;;;;;;;5054225;28;20178;-66
2022/07/03 00:25:01;;;;;;;5.63;3.87;;;;;;;;;;5054264;28;20189;-66
2022/07/03 00:27:28;;;;;;;4.70;3.50;;;;;;;;;;5035986;28;20696;-66
2022/07/03 00:29:56;;;;;;;4.13;3.60;;;;;;;;;;5054092;28;20175;-66
2022/07/03 00:32:23;;;;;;;6.23;3.20;;;;;;;;;;5058042;28;20547;-67
2022/07/03 00:34:50;;;;;;;4.50;3.90;;;;;;;;;;5040194;28;20182;-66
2022/07/03 00:37:16;;;;;;;5.27;3.57;;;;;;;;;;5039766;28;20222;-65
2022/07/03 00:39:43;;;;;;;5.60;3.40;;;;;;;;;;5039941;28;20549;-67
2022/07/03 00:42:10;;;;;;;5.83;3.17;;;;;;;;;;5039996;28;20178;-65
2022/07/03 00:44:43;;;;;;;4.50;3.10;;;;;;;;;;5057428;28;20527;-66
2022/07/03 00:47:10;;;;;;;3.73;3.13;;;;;;;;;;5039918;28;20578;-66
2022/07/03 00:49:36;;;;;;;4.73;3.20;;;;;;;;;;5058099;28;20246;-65
2022/07/03 00:52:05;;;;;;;4.07;3.37;;;;;;;;;;5057624;28;20180;-66
2022/07/03 00:54:34;;;;;;;2.90;2.60;;;;;;;;;;5039845;28;20183;-66
2022/07/03 00:57:00;;;;;;;8.13;3.43;;;;;;;;;;5057701;28;20230;-66
2022/07/03 00:59:26;;;;;;;5.20;3.10;;;;;;;;;;5039641;28;20228;-67
2022/07/03 01:01:54;;;;;;;5.43;3.00;;;;;;;;;;5039621;28;20183;-66
2022/07/03 01:04:32;;;;;;;5.10;2.93;;;;;;;;;;5057089;28;20174;-66
2022/07/03 01:07:01;;;;;;;3.87;3.13;;;;;;;;;;5057113;28;20202;-65
2022/07/03 01:09:34;;;;;;;4.43;2.87;;;;;;;;;;5039063;28;20178;-67
2022/07/03 01:12:07;;;;;;;4.53;3.43;;;;;;;;;;5057064;28;20166;-66
2022/07/03 01:14:45;;;;;;;5.13;2.90;;;;;;;;;;5057386;28;20182;-67
2022/07/03 01:17:15;;;;;;;5.00;2.90;;;;;;;;;;5057551;28;20202;-66
2022/07/03 01:19:42;;;;;;;3.80;3.40;;;;;;;;;;5057167;28;20619;-66
2022/07/03 01:22:27;;;;;;;5.13;3.00;;;;;;;;;;5057080;28;20174;-65
2022/07/03 01:24:56;;;;;;;5.03;3.10;;;;;;;;;;5039222;28;20195;-66
2022/07/03 01:27:32;;;;;;;11.37;3.07;;;;;;;;;;5056859;28;20206;-66
2022/07/03 01:30:10;;;;;;;4.93;2.90;;;;;;;;;;5057229;28;20666;-66
2022/07/03 01:32:41;;;;;;;7.53;2.73;;;;;;;;;;5056780;28;20258;-66
2022/07/03 01:35:08;;;;;;;4.97;2.77;;;;;;;;;;5057349;28;20587;-66
2022/07/03 01:37:35;;;;;;;4.63;3.17;;;;;;;;;;5038606;28;20222;-66
2022/07/03 01:40:02;;;;;;;3.77;2.73;;;;;;;;;;5056999;28;20175;-65
2022/07/03 01:42:28;;;;;;;6.93;3.03;;;;;;;;;;5055797;28;20548;-65
2022/07/03 01:44:56;;;;;;;5.20;2.97;;;;;;;;;;5056807;28;20175;-66
2022/07/03 01:47:24;;;;;;;3.93;2.77;;;;;;;;;;5056596;28;20434;-66
2022/07/03 01:49:50;;;;;;;9.17;2.90;;;;;;;;;;5038902;28;20186;-66
2022/07/03 01:52:16;;;;;;;6.90;2.97;;;;;;;;;;5038769;28;20594;-66
2022/07/03 01:54:45;;;;;;;5.43;3.27;;;;;;;;;;5038850;28;20551;-67
2022/07/03 01:57:11;;;;;;;3.87;2.57;;;;;;;;;;5056317;28;20214;-66
2022/07/03 01:59:37;;;;;;;6.70;3.30;;;;;;;;;;5056484;28;20665;-66
2022/07/03 02:02:29;;;;;;;4.27;2.87;;;;;;;;;;5056296;28;20261;-66
2022/07/03 02:05:00;;;;;;;3.87;2.83;;;;;;;;;;5056493;28;20194;-66
2022/07/03 02:07:36;;;;;;;4.77;2.30;;;;;;;;;;5056462;28;20598;-66
2022/07/03 02:10:04;;;;;;;2.97;2.67;;;;;;;;;;5057253;28;20534;-67
2022/07/03 02:12:35;;;;;;;3.17;2.80;;;;;;;;;;5038573;28;20183;-66
2022/07/03 02:15:06;;;;;;;5.70;2.83;;;;;;;;;;5038298;28;20204;-68
2022/07/03 02:17:37;;;;;;;3.10;2.80;;;;;;;;;;5038169;28;20232;-66
2022/07/03 02:20:06;;;;;;;2.53;2.30;;;;;;;;;;5038102;28;20221;-66
2022/07/03 02:22:34;;;;;;;3.53;2.70;;;;;;;;;;5056090;28;20179;-65
2022/07/03 02:25:03;;;;;;;4.07;2.93;;;;;;;;;;5055863;28;20201;-67
2022/07/03 02:27:32;;;;;;;3.10;2.70;;;;;;;;;;5055930;28;20205;-66
2022/07/03 02:30:02;;;;;;;3.70;2.93;;;;;;;;;;5055729;28;20194;-66
2022/07/03 02:32:30;;;;;;;2.60;2.40;;;;;;;;;;5038187;28;20577;-66
2022/07/03 02:34:59;;;;;;;3.13;2.83;;;;;;;;;;5055870;28;20179;-66
2022/07/03 02:37:29;;;;;;;3.37;2.53;;;;;;;;;;5055401;28;20218;-66
2022/07/03 02:40:03;;;;;;;3.20;2.50;;;;;;;;;;5055713;28;20631;-66
2022/07/03 02:42:39;;;;;;;8.47;2.83;;;;;;;;;;5037739;28;20177;-66
2022/07/03 02:45:08;;;;;;;4.33;2.90;;;;;;;;;;5055606;28;20688;-66
2022/07/03 02:47:37;;;;;;;3.33;2.60;;;;;;;;;;5055741;28;20199;-66
2022/07/03 02:50:05;;;;;;;2.93;2.40;;;;;;;;;;5055212;28;20190;-66
2022/07/03 02:52:37;;;;;;;3.10;2.60;;;;;;;;;;5037578;28;20183;-66
2022/07/03 02:55:07;;;;;;;3.83;2.90;;;;;;;;;;5037224;28;20190;-66
2022/07/03 02:57:40;;;;;;;2.90;2.43;;;;;;;;;;5038354;28;20599;-66
2022/07/03 03:00:07;;;;;;;5.27;3.17;;;;;;;;;;5055448;28;20232;-67
2022/07/03 03:02:50;;;;;;;2.83;2.37;;;;;;;;;;5055439;28;20171;-67
2022/07/03 03:05:21;;;;;;;5.60;2.53;;;;;;;;;;5055119;28;20173;-65
2022/07/03 03:08:06;;;;;;;3.00;2.70;;;;;;;;;;5037851;28;20618;-65
2022/07/03 03:10:37;;;;;;;3.33;2.53;;;;;;;;;;5038370;28;20190;-65
2022/07/03 03:13:10;;;;;;;4.53;2.87;;;;;;;;;;5056188;28;20178;-65
2022/07/03 03:15:37;;;;;;;4.87;2.90;;;;;;;;;;5055726;28;20216;-65
2022/07/03 03:18:04;;;;;;;4.50;2.87;;;;;;;;;;5056980;28;20210;-65
2022/07/03 03:20:35;;;;;;;3.63;3.07;;;;;;;;;;5055241;28;20259;-66
2022/07/03 03:23:01;;;;;;;3.70;3.00;;;;;;;;;;5055320;28;20186;-66
2022/07/03 03:25:27;;;;;;;5.23;3.30;;;;;;;;;;5055793;28;20174;-65
2022/07/03 03:27:53;;;;;;;3.17;2.87;;;;;;;;;;5037779;28;20190;-64
2022/07/03 03:30:19;;;;;;;4.20;3.23;;;;;;;;;;5055624;28;20179;-65
2022/07/03 03:32:45;;;;;;;4.20;3.30;;;;;;;;;;5055864;28;20174;-65
2022/07/03 03:35:11;;;;;;;4.73;3.57;;;;;;;;;;5038257;28;20719;-66
2022/07/03 03:37:38;;;;;;;3.67;3.33;;;;;;;;;;5055730;28;20589;-65
2022/07/03 03:40:04;;;;;;;5.37;3.23;;;;;;;;;;5054425;28;20638;-64
2022/07/03 03:42:30;;;;;;;3.43;2.93;;;;;;;;;;5054771;28;20645;-66
2022/07/03 03:44:56;;;;;;;4.23;3.03;;;;;;;;;;5036727;28;20178;-66
2022/07/03 03:47:22;;;;;;;5.07;3.50;;;;;;;;;;5036466;28;20292;-65
2022/07/03 03:49:48;;;;;;;3.70;2.93;;;;;;;;;;5054922;28;20179;-65
2022/07/03 03:52:14;;;;;;;4.17;3.40;;;;;;;;;;5036610;28;20179;-66
2022/07/03 03:54:40;;;;;;;6.33;3.30;;;;;;;;;;5036462;28;20626;-65
2022/07/03 03:57:16;;;;;;;5.60;3.20;;;;;;;;;;5054808;28;20209;-66
2022/07/03 03:59:42;;;;;;;4.00;3.10;;;;;;;;;;5036454;28;20186;-66
2022/07/03 04:02:08;;;;;;;5.67;3.57;;;;;;;;;;5054209;28;20178;-66
2022/07/03 04:04:34;;;;;;;4.07;3.03;;;;;;;;;;5054284;28;20530;-65
2022/07/03 04:07:00;;;;;;;4.93;2.97;;;;;;;;;;5053630;28;20705;-66
2022/07/03 04:09:26;;;;;;;3.27;3.00;;;;;;;;;;5053963;28;20610;-67
2022/07/03 04:11:52;;;;;;;6.10;3.83;;;;;;;;;;5054536;28;20531;-65
2022/07/03 04:14:18;;;;;;;3.50;3.03;;;;;;;;;;5054041;28;20595;-65
2022/07/03 04:16:44;;;;;;;5.33;3.30;;;;;;;;;;5054428;28;20217;-65
2022/07/03 04:19:10;;;;;;;4.50;3.60;;;;;;;;;;5036379;28;20293;-66
2022/07/03 04:21:36;;;;;;;3.53;2.83;;;;;;;;;;5054543;28;20228;-66
2022/07/03 04:24:02;;;;;;;3.50;3.20;;;;;;;;;;5054646;28;20541;-64
2022/07/03 04:26:28;;;;;;;3.63;3.27;;;;;;;;;;5054877;28;20543;-65
2022/07/03 04:28:53;;;;;;;5.40;3.23;;;;;;;;;;5054293;28;20179;-66
2022/07/03 04:31:19;;;;;;;8.27;3.40;;;;;;;;;;5054562;28;20263;-65
2022/07/03 04:33:45;;;;;;;5.13;3.40;;;;;;;;;;5054123;28;20182;-66
2022/07/03 04:36:11;;;;;;;8.80;3.97;;;;;;;;;;5053852;28;20206;-66
2022/07/03 04:38:37;;;;;;;7.23;3.73;;;;;;;;;;5054206;28;20202;-65
2022/07/03 04:41:03;;;;;;;3.43;3.13;;;;;;;;;;5036428;28;20229;-66
2022/07/03 04:43:29;;;;;;;4.33;3.33;;;;;;;;;;5036165;28;20193;-66
2022/07/03 04:45:55;;;;;;;3.47;3.17;;;;;;;;;;5053833;28;20249;-66
2022/07/03 04:48:21;;;;;;;4.73;3.33;;;;;;;;;;5054278;28;20194;-66
2022/07/03 04:50:47;;;;;;;6.30;3.30;;;;;;;;;;5054136;28;20178;-66
2022/07/03 04:53:13;;;;;;;4.03;3.30;;;;;;;;;;5036089;28;20187;-65
2022/07/03 04:55:39;;;;;;;5.90;3.40;;;;;;;;;;5036243;28;20260;-66
2022/07/03 04:58:05;;;;;;;3.40;3.00;;;;;;;;;;5054933;28;20339;-66
2022/07/03 05:00:31;;;;;;;3.40;3.10;;;;;;;;;;5036689;28;20182;-66
2022/07/03 05:02:57;;;;;;;3.50;3.17;;;;;;;;;;5054925;28;20179;-68
2022/07/03 05:05:23;;;;;;;3.13;2.80;;;;;;;;;;5055183;28;20600;-66
2022/07/03 05:07:49;;;;;;;3.27;2.87;;;;;;;;;;5037243;28;20179;-67
2022/07/03 05:10:15;;;;;;;2.97;2.63;;;;;;;;;;5037173;28;20183;-66
2022/07/03 05:12:41;;;;;;;3.97;3.50;;;;;;;;;;5037699;28;20237;-67
2022/07/03 05:15:08;;;;;;;3.63;3.17;;;;;;;;;;5037113;28;20587;-68
2022/07/03 05:17:34;;;;;;;4.97;3.50;;;;;;;;;;5056762;28;20255;-67
2022/07/03 05:22:44;;;;;;;3.50;3.20;;;;;;;;;;5058203;28;20198;-68
2022/07/03 05:25:10;;;;;;;6.27;3.97;;;;;;;;;;5040549;28;20559;-67
2022/07/03 05:27:37;;;;;;;5.10;3.97;;;;;;;;;;5058017;28;20590;-66
2022/07/03 05:30:03;;;;;;;4.60;3.43;;;;;;;;;;5058032;28;20638;-66
2022/07/03 05:32:29;;;;;;;4.10;3.40;;;;;;;;;;5039535;28;20602;-66
2022/07/03 05:34:55;;;;;;;4.40;4.00;;;;;;;;;;5057789;28;20182;-66
2022/07/03 05:37:21;;;;;;;6.17;4.10;;;;;;;;;;5057181;28;20686;-67
2022/07/03 05:39:47;;;;;;;4.40;4.00;;;;;;;;;;5057552;28;20174;-66
2022/07/03 05:42:13;;;;;;;5.33;4.30;;;;;;;;;;5057479;28;20182;-65
2022/07/03 05:44:39;;;;;;;4.80;4.40;;;;;;;;;;5057864;28;20186;-67
2022/07/03 05:47:04;;;;;;;7.47;5.00;;;;;;;;;;5057644;28;20253;-66
2022/07/03 05:49:30;;;;;;;5.00;4.30;;;;;;;;;;5039292;28;20179;-66
2022/07/03 05:51:56;;;;;;;5.07;4.57;;;;;;;;;;5057699;28;20223;-66
2022/07/03 05:54:22;;;;;;;5.90;4.10;;;;;;;;;;5057587;28;20174;-66
2022/07/03 05:56:48;;;;;;;6.77;4.77;;;;;;;;;;5040048;28;20205;-66
2022/07/03 05:59:14;;;;;;;6.43;4.40;;;;;;;;;;5057310;28;20205;-66
2022/07/03 06:01:40;;;;;;;4.90;4.43;;;;;;;;;;5057857;28;20272;-67
2022/07/03 06:04:06;;;;;;;6.90;4.50;;;;;;;;;;5058031;28;20284;-67
2022/07/03 06:06:32;;;;;;;6.23;5.00;;;;;;;;;;5040244;28;20194;-66
2022/07/03 06:08:58;;;;;;;4.73;4.33;;;;;;;;;;5040280;28;20642;-66
2022/07/03 06:11:24;;;;;;;6.10;5.07;;;;;;;;;;5040394;28;20646;-66
2022/07/03 06:13:50;;;;;;;8.20;4.93;;;;;;;;;;5057691;28;20602;-65
2022/07/03 06:16:16;;;;;;;6.53;5.47;;;;;;;;;;5057398;28;20202;-64
2022/07/03 06:18:42;;;;;;;9.80;5.20;;;;;;;;;;5056752;28;20206;-66
2022/07/03 06:21:08;;;;;;;4.83;4.43;;;;;;;;;;5057591;28;20238;-67
2022/07/03 06:23:34;;;;;;;6.17;4.73;;;;;;;;;;5057447;28;20214;-68
2022/07/03 06:26:00;;;;;;;7.57;4.93;;;;;;;;;;5057668;28;20243;-67
2022/07/03 06:28:26;;;;;;;5.43;4.93;;;;;;;;;;5038046;28;20642;-65
2022/07/03 06:30:52;;;;;;;5.70;4.90;;;;;;;;;;5057018;28;20181;-67
2022/07/03 06:33:18;;;;;;;6.13;5.53;;;;;;;;;;5058252;28;20261;-68
2022/07/03 06:35:45;;;;;;;5.40;4.47;;;;;;;;;;5039254;28;20222;-65
2022/07/03 06:38:11;;;;;;;6.80;4.30;;;;;;;;;;5057240;28;20202;-65
2022/07/03 06:40:36;;;;;;;5.67;4.80;;;;;;;;;;5057109;28;20254;-65
2022/07/03 06:43:02;;;;;;;6.00;5.40;;;;;;;;;;5056949;28;20183;-65
2022/07/03 06:45:28;;;;;;;5.23;4.40;;;;;;;;;;5038698;28;20595;-65
2022/07/03 06:47:54;;;;;;;4.87;4.47;;;;;;;;;;5057000;28;20541;-65
2022/07/03 06:50:20;;;;;;;4.13;3.80;;;;;;;;;;5056477;28;20175;-65
2022/07/03 06:52:46;;;;;;;3.97;3.57;;;;;;;;;;5056368;28;20181;-66
2022/07/03 06:55:13;;;;;;;4.27;3.87;;;;;;;;;;5038633;28;20212;-66
2022/07/03 06:57:39;;;;;;;4.23;3.60;;;;;;;;;;5056851;28;20295;-66
2022/07/03 07:00:05;;;;;;;3.50;3.20;;;;;;;;;;5057398;28;20178;-66
2022/07/03 07:02:31;;;;;;;3.00;2.80;;;;;;;;;;5056769;28;20266;-66
2022/07/03 07:04:57;;;;;;;4.17;2.93;;;;;;;;;;5056974;28;20213;-67
2022/07/03 07:07:23;;;;;;;7.53;3.03;;;;;;;;;;5058790;28;20557;-66
2022/07/03 07:09:49;;;;;;;2.47;2.27;;;;;;;;;;5041222;28;20241;-66
2022/07/03 07:12:15;;;;;;;4.33;2.70;;;;;;;;;;5059114;28;20209;-66
2022/07/03 07:14:41;;;;;;;4.10;2.73;;;;;;;;;;5059188;28;20314;-66
2022/07/03 07:17:08;;;;;;;3.17;2.70;;;;;;;;;;5058956;28;20675;-66
2022/07/03 07:19:34;;;;;;;6.40;2.73;;;;;;;;;;5039364;28;20543;-66
2022/07/03 07:22:01;;;;;;;4.90;2.60;;;;;;;;;;5038112;28;20185;-67
2022/07/03 07:24:27;;;;;;;6.47;2.40;;;;;;;;;;5056266;28;20171;-67
2022/07/03 07:26:53;;;;;;;2.43;1.97;;;;;;;;;;5037624;28;20206;-66
2022/07/03 07:29:19;;;;;;;2.40;1.90;;;;;;;;;;5056326;28;20219;-66
2022/07/03 07:31:45;;;;;;;2.20;2.07;;;;;;;;;;5037642;28;20182;-65
2022/07/03 07:34:11;;;;;;;2.13;1.93;;;;;;;;;;5056535;28;20189;-67
2022/07/03 07:36:37;;;;;;;2.80;2.30;;;;;;;;;;5056039;28;20214;-67
2022/07/03 07:39:03;;;;;;;4.57;2.47;;;;;;;;;;5038474;28;20210;-67
2022/07/03 07:41:29;;;;;;;4.03;2.27;;;;;;;;;;5036413;28;20206;-65
2022/07/03 07:43:55;;;;;;;3.43;2.50;;;;;;;;;;5037382;28;20178;-66
2022/07/03 07:46:21;;;;;;;2.70;2.10;;;;;;;;;;5056074;28;20252;-66
2022/07/03 07:48:47;;;;;;;2.50;2.30;;;;;;;;;;5055887;28;20213;-66
2022/07/03 07:51:13;;;;;;;3.93;2.20;;;;;;;;;;5037566;28;20273;-67
2022/07/03 07:53:39;;;;;;;2.77;2.13;;;;;;;;;;5037731;28;20727;-66
2022/07/03 07:56:05;;;;;;;4.53;2.50;;;;;;;;;;5037362;28;20210;-66
2022/07/03 07:58:31;;;;;;;3.23;2.47;;;;;;;;;;5055976;28;20204;-65
2022/07/03 08:06:26;;;;;;;2.60;2.40;;;;;;;;;;5053717;28;20248;-66
2022/07/03 08:08:52;;;;;;;4.27;2.67;;;;;;;;;;5053354;28;20605;-66
2022/07/03 08:11:18;;;;;;;3.70;2.80;;;;;;;;;;5053608;28;20179;-69
2022/07/03 08:13:45;;;;;;;5.90;2.77;;;;;;;;;;5035349;28;20210;-66
2022/07/03 08:16:11;;;;;;;4.37;2.97;;;;;;;;;;5053312;28;20171;-66
2022/07/03 08:18:37;;;;;;;2.50;2.30;;;;;;;;;;5053043;28;20202;-66
2022/07/03 08:21:03;;;;;;;3.13;2.50;;;;;;;;;;5053671;28;20188;-66
2022/07/03 08:23:29;;;;;;;8.03;2.70;;;;;;;;;;5052976;28;20737;-66
2022/07/03 08:25:55;;;;;;;5.17;2.50;;;;;;;;;;5053587;28;20221;-66
2022/07/03 08:28:21;;;;;;;3.57;2.53;;;;;;;;;;5053042;28;20265;-67
2022/07/03 08:30:48;;;;;;;4.23;2.80;;;;;;;;;;5053092;28;20190;-65
2022/07/03 08:33:14;;;;;;;3.93;2.97;;;;;;;;;;5053225;28;20190;-66
2022/07/03 08:35:40;;;;;;;5.20;2.77;;;;;;;;;;5053482;28;20195;-66
2022/07/03 08:38:06;;;;;;;3.80;3.03;;;;;;;;;;5053085;28;20202;-66
2022/07/03 08:40:32;;;;;;;3.43;2.60;;;;;;;;;;5053448;28;20592;-65
2022/07/03 08:43:03;;;;;;;5.63;2.53;;;;;;;;;;5035121;28;20209;-65
2022/07/03 08:45:29;;;;;;;8.57;2.77;;;;;;;;;;5053084;28;20217;-66
2022/07/03 08:47:57;;;;;;;4.33;3.60;;;;;;;;;;5034832;28;20273;-66
2022/07/03 08:50:23;;;;;;;4.60;3.70;;;;;;;;;;5052832;28;20657;-66
2022/07/03 08:52:49;;;;;;;6.17;2.37;;;;;;;;;;5037797;28;20190;-66
2022/07/03 08:55:16;;;;;;;3.90;2.77;;;;;;;;;;5057042;28;20174;-66
2022/07/03 08:57:43;;;;;;;3.97;2.23;;;;;;;;;;5056573;28;20202;-66
2022/07/03 09:00:10;;;;;;;2.93;2.50;;;;;;;;;;5056869;28;20175;-66
2022/07/03 09:02:39;;;;;;;2.50;2.30;;;;;;;;;;5056303;28;20618;-66
2022/07/03 09:05:06;;;;;;;3.30;2.70;;;;;;;;;;5038729;28;20175;-66
2022/07/03 09:07:35;;;;;;;3.40;2.40;;;;;;;;;;5056261;28;20202;-66
2022/07/03 09:10:02;;;;;;;4.83;2.57;;;;;;;;;;5056606;28;20210;-66
2022/07/03 09:12:30;;;;;;;3.10;2.10;;;;;;;;;;5056379;28;20182;-65
2022/07/03 09:14:56;;;;;;;3.13;2.67;;;;;;;;;;5056530;28;20183;-66
2022/07/03 09:17:22;;;;;;;4.80;2.93;;;;;;;;;;5038344;28;20178;-66
2022/07/03 09:19:49;;;;;;;6.00;3.10;;;;;;;;;;5056139;28;20177;-66
2022/07/03 09:22:22;;;;;;;3.73;3.37;;;;;;;;;;5056383;28;20657;-66
2022/07/03 09:24:49;;;;;;;3.07;2.47;;;;;;;;;;5056255;28;20190;-66
2022/07/03 09:27:20;;;;;;;5.73;2.80;;;;;;;;;;5056686;28;20731;-65
2022/07/03 09:30:12;;;;;;;4.83;2.70;;;;;;;;;;5056130;28;20639;-66
2022/07/03 09:32:38;;;;;;;3.87;2.20;;;;;;;;;;5036361;28;20196;-66
2022/07/03 09:35:14;;;;;;;3.97;2.50;;;;;;;;;;5056168;28;20175;-66
2022/07/03 09:37:50;;;;;;;4.03;2.70;;;;;;;;;;5055961;28;20269;-67
2022/07/03 09:40:16;;;;;;;4.27;2.47;;;;;;;;;;5056378;28;20598;-66
2022/07/03 09:43:00;;;;;;;3.73;2.30;;;;;;;;;;5038109;28;20202;-66
2022/07/03 09:45:27;;;;;;;2.60;2.23;;;;;;;;;;5056353;28;20177;-66
2022/07/03 09:47:53;;;;;;;2.80;2.00;;;;;;;;;;5037819;28;20178;-67
2022/07/03 09:50:19;;;;;;;3.13;2.10;;;;;;;;;;5055780;28;20590;-66
2022/07/03 09:52:48;;;;;;;3.37;2.30;;;;;;;;;;5055541;28;20181;-66
2022/07/03 09:55:16;;;;;;;11.23;3.03;;;;;;;;;;5055649;28;20186;-66
2022/07/03 09:57:45;;;;;;;5.00;2.00;;;;;;;;;;5037411;28;20259;-67
2022/07/03 10:00:15;;;;;;;3.50;2.33;;;;;;;;;;5055459;28;20224;-66
2022/07/03 10:02:55;;;;;;;3.23;2.67;;;;;;;;;;5054666;28;20198;-67
2022/07/03 10:05:21;;;;;;;2.17;1.97;;;;;;;;;;5055100;28;20167;-66
2022/07/03 10:07:52;;;;;;;2.80;2.50;;;;;;;;;;5055461;28;20261;-66
2022/07/03 10:10:19;;;;;;;4.57;2.50;;;;;;;;;;5055333;28;20228;-66
2022/07/03 10:12:46;;;;;;;2.33;2.10;;;;;;;;;;5055263;28;20178;-66
2022/07/03 10:15:13;;;;;;;3.07;2.60;;;;;;;;;;5055493;28;20248;-66
2022/07/03 10:17:39;;;;;;;3.93;2.57;;;;;;;;;;5055066;28;20670;-66
2022/07/03 10:20:05;;;;;;;3.27;2.10;;;;;;;;;;5055264;28;20674;-66
2022/07/03 10:22:32;;;;;;;4.50;2.40;;;;;;;;;;5055382;28;20206;-66
2022/07/03 10:24:59;;;;;;;3.03;2.60;;;;;;;;;;5054963;28;20228;-66
2022/07/03 10:27:26;;;;;;;2.30;2.10;;;;;;;;;;5037172;28;20588;-67
2022/07/03 10:29:52;;;;;;;4.63;2.30;;;;;;;;;;5055075;28;20254;-67
2022/07/03 10:32:19;;;;;;;3.60;2.37;;;;;;;;;;5055364;28;20181;-67
2022/07/03 10:34:45;;;;;;;4.77;2.70;;;;;;;;;;5037036;28;20198;-67
2022/07/03 10:37:15;;;;;;;3.83;2.17;;;;;;;;;;5055005;28;20182;-66
2022/07/03 10:44:45;;;;;;;2.90;2.23;;;;;;;;;;5054876;28;20178;-66
2022/07/03 10:45:33;;;;;;;2.27;2.03;;;;;;;;;;5054551;28;20553;-66
2022/07/03 10:47:59;;;;;;;3.40;1.93;;;;;;;;;;5054404;28;20179;-65
2022/07/03 10:50:25;;;;;;;2.40;2.00;;;;;;;;;;5054815;28;20629;-66
2022/07/03 10:52:51;;;;;;;43.30;5.33;;;;;;;;;;5054093;28;20226;-67
2022/07/03 10:55:18;;;;;;;3.60;2.20;;;;;;;;;;5036278;28;20562;-66
2022/07/03 10:58:04;;;;;;;2.47;2.10;;;;;;;;;;5054074;28;20205;-66
2022/07/03 11:00:30;;;;;;;3.40;2.20;;;;;;;;;;5036215;28;20182;-66
2022/07/03 11:02:56;;;;;;;2.50;1.90;;;;;;;;;;5054012;28;20214;-66
2022/07/03 11:05:23;;;;;;;2.30;1.50;;;;;;;;;;5054611;28;20175;-66
2022/07/03 11:07:48;;;;;;;2.57;1.77;;;;;;;;;;5036227;28;20185;-66
2022/07/03 11:10:15;;;;;;;2.13;1.87;;;;;;;;;;5054067;28;20183;-66
2022/07/03 11:13:00;;;;;;;2.83;1.93;;;;;;;;;;5036051;28;20283;-66
2022/07/03 11:15:26;;;;;;;2.03;1.70;;;;;;;;;;5053616;28;20304;-64
2022/07/03 11:18:19;;;;;;;2.83;1.80;;;;;;;;;;5035989;28;20233;-66
2022/07/03 11:20:45;;;;;;;2.43;1.70;;;;;;;;;;5033962;28;20324;-66
2022/07/03 11:23:10;;;;;;;2.83;2.20;;;;;;;;;;5053785;28;20226;-67
2022/07/03 11:25:39;;;;;;;3.40;1.90;;;;;;;;;;5053970;28;20247;-65
2022/07/03 11:28:05;;;;;;;5.83;2.00;;;;;;;;;;5054387;28;20178;-66
2022/07/03 11:30:31;;;;;;;4.40;1.90;;;;;;;;;;5036174;28;20236;-66
2022/07/03 11:32:58;;;;;;;3.70;2.30;;;;;;;;;;5053647;28;20190;-66
2022/07/03 11:35:43;;;;;;;3.73;1.60;;;;;;;;;;5036729;28;20232;-67
2022/07/03 11:38:09;;;;;;;2.30;1.70;;;;;;;;;;5053541;28;20205;-65
2022/07/03 11:40:36;;;;;;;2.67;2.33;;;;;;;;;;5053776;28;20175;-66
2022/07/03 11:43:02;;;;;;;1.80;1.70;;;;;;;;;;5053368;28;20206;-66
2022/07/03 11:45:29;;;;;;;2.37;1.80;;;;;;;;;;5053427;28;20257;-66
2022/07/03 11:47:56;;;;;;;3.30;2.63;;;;;;;;;;5053471;28;20270;-66
2022/07/03 11:50:36;;;;;;;1.90;1.70;;;;;;;;;;5035449;28;20174;-66
2022/07/03 11:53:15;;;;;;;4.57;1.87;;;;;;;;;;5053274;28;20202;-66
2022/07/03 11:55:46;;;;;;;1.90;1.70;;;;;;;;;;5035503;28;20182;-66
2022/07/03 11:58:12;;;;;;;1.67;1.57;;;;;;;;;;5053400;28;20209;-66
2022/07/03 12:00:38;;;;;;;3.03;1.97;;;;;;;;;;5053527;28;20175;-66
2022/07/03 12:03:04;;;;;;;2.00;1.80;;;;;;;;;;5035256;28;20202;-67
2022/07/03 12:05:30;;;;;;;1.83;1.70;;;;;;;;;;5053669;28;20167;-66
2022/07/03 12:08:03;;;;;;;1.77;1.67;;;;;;;;;;5035353;28;20244;-66
2022/07/03 12:10:42;;;;;;;4.40;1.70;;;;;;;;;;5053355;28;20606;-66
2022/07/03 12:13:20;;;;;;;1.70;1.60;;;;;;;;;;5053060;28;20206;-64
2022/07/03 12:15:47;;;;;;;2.17;1.70;;;;;;;;;;5035216;28;20264;-66
2022/07/03 12:18:13;;;;;;;1.77;1.50;;;;;;;;;;5034848;28;20206;-66
2022/07/03 12:20:39;;;;;;;2.00;1.80;;;;;;;;;;5053354;28;20225;-66
2022/07/03 12:23:05;;;;;;;5.03;1.83;;;;;;;;;;5052939;28;20194;-64
2022/07/03 12:25:31;;;;;;;4.83;3.53;;;;;;;;;;5053055;28;20178;-66
2022/07/03 12:27:57;;;;;;;2.80;2.20;;;;;;;;;;5058978;28;20186;-66
2022/07/03 12:30:27;;;;;;;1.97;1.70;;;;;;;;;;5059628;28;20178;-66
2022/07/03 12:32:53;;;;;;;2.00;1.50;;;;;;;;;;5059437;28;20194;-66
2022/07/03 12:35:23;;;;;;;1.87;1.53;;;;;;;;;;5041503;28;20213;-66
2022/07/03 12:37:49;;;;;;;1.73;1.60;;;;;;;;;;5059298;28;20205;-66
2022/07/03 12:40:15;;;;;;;1.73;1.63;;;;;;;;;;5059603;28;20585;-66
2022/07/03 12:42:54;;;;;;;3.43;1.80;;;;;;;;;;5059389;28;20201;-66
2022/07/03 12:45:21;;;;;;;1.80;1.60;;;;;;;;;;5041287;28;20190;-67
2022/07/03 12:47:57;;;;;;;1.83;1.70;;;;;;;;;;5041274;28;20183;-66
2022/07/03 12:50:23;;;;;;;3.37;1.80;;;;;;;;;;5059945;28;20166;-66
2022/07/03 12:52:51;;;;;;;2.67;1.90;;;;;;;;;;5041249;28;20251;-66
2022/07/03 12:55:27;;;;;;;2.10;1.50;;;;;;;;;;5059651;28;20204;-65
2022/07/03 13:00:56;;;;;;;3.10;1.53;;;;;;;;;;5059518;28;20197;-67
2022/07/03 13:03:32;;;;;;;1.70;1.60;;;;;;;;;;5059403;28;20290;-66
2022/07/03 13:05:58;;;;;;;1.73;1.63;;;;;;;;;;5059358;28;20174;-65
2022/07/03 13:08:24;;;;;;;1.43;1.33;;;;;;;;;;5041577;28;20530;-66
2022/07/03 13:10:57;;;;;;;2.13;1.70;;;;;;;;;;5059552;28;20261;-66
2022/07/03 13:13:23;;;;;;;1.77;1.67;;;;;;;;;;5059412;28;20198;-66
2022/07/03 13:15:49;;;;;;;4.10;3.67;;;;;;;;;;5059402;28;20186;-64
2022/07/03 13:18:15;;;;;;;3.97;2.00;;;;;;;;;;5059410;28;20259;-64
2022/07/03 13:20:41;;;;;;;3.03;2.10;;;;;;;;;;5059711;28;20178;-64
2022/07/03 13:23:07;;;;;;;7.00;5.57;;;;;;;;;;5059287;28;20321;-66
2022/07/03 13:25:35;;;;;;;4.00;2.03;;;;;;;;;;5059492;28;20591;-66
2022/07/03 13:28:08;;;;;;;1.73;1.50;;;;;;;;;;5059395;28;20182;-66
2022/07/03 13:30:35;;;;;;;1.83;1.70;;;;;;;;;;5059076;28;20536;-66
2022/07/03 13:33:03;;;;;;;2.00;1.80;;;;;;;;;;5059210;28;20204;-66
2022/07/03 13:35:30;;;;;;;2.87;2.00;;;;;;;;;;5058888;28;20177;-66
2022/07/03 13:37:56;;;;;;;2.80;1.70;;;;;;;;;;5057907;28;20555;-66
2022/07/03 13:40:22;;;;;;;1.80;1.67;;;;;;;;;;5037964;28;20182;-67
2022/07/03 13:42:48;;;;;;;1.57;1.47;;;;;;;;;;5055757;28;20171;-66
2022/07/03 13:45:14;;;;;;;1.50;1.40;;;;;;;;;;5055822;28;20198;-67
2022/07/03 13:47:40;;;;;;;1.83;1.40;;;;;;;;;;5037976;28;20670;-66
2022/07/03 13:50:06;;;;;;;2.77;1.50;;;;;;;;;;5056202;28;20201;-64
2022/07/03 13:52:32;;;;;;;2.77;1.60;;;;;;;;;;5055781;28;20174;-63
2022/07/03 13:54:58;;;;;;;2.90;1.40;;;;;;;;;;5056121;28;20662;-66
2022/07/03 13:57:24;;;;;;;1.40;1.23;;;;;;;;;;5038011;28;20175;-66
2022/07/03 13:59:49;;;;;;;1.40;1.30;;;;;;;;;;5055947;28;20635;-66
2022/07/03 14:02:16;;;;;;;1.87;1.60;;;;;;;;;;5055673;28;20324;-67
2022/07/03 14:04:42;;;;;;;1.60;1.47;;;;;;;;;;5055258;28;20213;-66
2022/07/03 14:07:08;;;;;;;1.50;1.40;;;;;;;;;;5055288;28;20171;-64
2022/07/03 14:09:34;;;;;;;1.60;1.50;;;;;;;;;;5055516;28;20193;-66
2022/07/03 14:12:00;;;;;;;2.13;1.40;;;;;;;;;;5055237;28;20261;-66
2022/07/03 14:14:26;;;;;;;2.27;2.07;;;;;;;;;;5037263;28;20300;-66
2022/07/03 14:16:52;;;;;;;2.10;1.40;;;;;;;;;;5056380;28;20232;-66
2022/07/03 14:19:18;;;;;;;1.53;1.43;;;;;;;;;;5054995;28;20630;-66
2022/07/03 14:21:44;;;;;;;1.90;1.20;;;;;;;;;;5055320;28;20626;-66
2022/07/03 14:24:10;;;;;;;2.47;1.33;;;;;;;;;;5036965;28;20233;-66
2022/07/03 14:34:50;;;;;;;2.67;1.40;;;;;;;;;;5054950;28;20586;-66
2022/07/03 14:37:18;;;;;;;2.87;1.70;;;;;;;;;;5055109;28;20186;-67
2022/07/03 14:39:45;;;;;;;3.30;1.50;;;;;;;;;;5054680;28;20539;-64
2022/07/03 14:42:11;;;;;;;3.80;1.52;;;;;;;;;;5053630;28;20370;-65
2022/07/03 14:44:37;;;;;;;2.60;1.70;;;;;;;;;;5054670;28;20288;-66
2022/07/03 14:47:03;;;;;;;2.25;1.63;;;;;;;;;;5054630;28;20174;-66
2022/07/03 14:49:29;;;;;;;3.15;1.77;;;;;;;;;;5036170;28;20179;-66
2022/07/03 14:51:55;;;;;;;3.45;1.27;;;;;;;;;;5054540;28;20174;-66
2022/07/03 14:54:20;;;;;;;2.20;1.57;;;;;;;;;;5054296;28;20256;-66
2022/07/03 14:56:48;;;;;;;2.97;1.40;;;;;;;;;;5054481;28;20174;-66
2022/07/03 14:59:14;;;;;;;1.67;1.40;;;;;;;;;;5054363;28;20217;-67
2022/07/03 15:01:45;;;;;;;1.70;1.60;;;;;;;;;;5036175;28;20186;-64
2022/07/03 15:04:29;;;;;;;1.87;1.40;;;;;;;;;;5036026;28;20214;-67
2022/07/03 15:06:56;;;;;;;1.33;1.23;;;;;;;;;;5054397;28;20167;-65
2022/07/03 15:09:29;;;;;;;2.57;1.20;;;;;;;;;;5054069;28;20186;-66